createdAt,value
2024-01-04T00:00:31.475Z,98891.44
2024-01-04T00:04:33.185Z,98900.00
2024-01-04T00:08:35.224Z,98903.44
2024-01-04T00:12:36.968Z,98894.09
2024-01-04T00:16:38.599Z,98914.53
2024-01-04T00:20:40.320Z,98921.34
2024-01-04T00:24:41.977Z,98911.13
2024-01-04T00:28:43.545Z,98912.81
2024-01-04T00:32:45.240Z,98908.56
2024-01-04T00:36:46.959Z,98916.28
2024-01-04T00:40:48.921Z,98905.13
2024-01-04T00:44:51.628Z,98928.09
2024-01-04T00:48:53.706Z,98916.97
2024-01-04T00:53:03.187Z,98914.47
2024-01-04T00:57:08.084Z,98921.16
2024-01-04T01:01:09.919Z,98929.69
2024-01-04T01:05:11.995Z,98925.41
2024-01-04T01:09:13.601Z,98930.56
2024-01-04T01:13:21.335Z,98933.94
2024-01-04T01:17:22.961Z,98936.50
2024-01-04T01:21:24.570Z,98931.47
2024-01-04T01:25:26.208Z,98939.25
2024-01-04T01:29:27.960Z,98946.94
2024-01-04T01:33:30.264Z,98969.94
2024-01-04T01:37:37.513Z,98982.75
2024-01-04T01:41:39.317Z,98975.91
2024-01-04T01:45:40.990Z,98977.59
2024-01-04T01:49:42.693Z,98980.94
2024-01-04T01:53:45.800Z,98975.06
2024-01-04T01:57:47.636Z,98988.75
2024-01-04T02:01:49.370Z,98990.50
2024-01-04T02:05:51.494Z,99002.44
2024-01-04T02:09:53.531Z,99019.53
2024-01-04T02:13:55.098Z,99015.22
2024-01-04T02:17:57.043Z,99016.91
2024-01-04T02:21:59.290Z,99016.13
2024-01-04T02:26:01.573Z,99031.53
2024-01-04T02:30:03.973Z,99037.47
2024-01-04T02:34:05.883Z,99054.53
2024-01-04T02:38:07.571Z,99060.50
2024-01-04T02:42:09.415Z,99074.09
2024-01-04T02:46:11.126Z,99075.72
2024-01-04T02:50:13.295Z,99071.44
2024-01-04T02:54:14.972Z,99069.72
2024-01-04T02:58:16.621Z,99088.38
2024-01-04T03:02:18.200Z,99099.41
2024-01-04T03:06:26.211Z,99103.75
2024-01-04T03:10:27.889Z,99117.50
2024-01-04T03:14:29.482Z,99117.56
2024-01-04T03:18:31.289Z,99115.84
2024-01-04T03:22:32.944Z,99121.91
2024-01-04T03:26:34.794Z,99106.63
2024-01-04T03:30:36.634Z,99119.44
2024-01-04T03:34:38.323Z,99113.47
2024-01-04T03:38:39.995Z,99117.69
2024-01-04T03:42:41.635Z,99112.59
2024-01-04T03:46:43.297Z,99137.28
2024-01-04T03:50:44.851Z,99126.97
2024-01-04T03:54:46.466Z,99145.69
2024-01-04T03:58:48.145Z,99126.91
2024-01-04T04:02:49.869Z,99139.66
2024-01-04T04:06:51.653Z,99146.50
2024-01-04T04:10:53.294Z,99179.75
2024-01-04T04:14:55.626Z,99176.28
2024-01-04T04:18:57.538Z,99186.56
2024-01-04T04:22:59.206Z,99173.69
2024-01-04T04:27:00.837Z,99181.41
2024-01-04T04:31:04.344Z,99178.00
2024-01-04T04:35:06.231Z,99198.41
2024-01-04T04:39:09.795Z,99209.50
2024-01-04T04:43:11.388Z,99213.00
2024-01-04T04:47:12.960Z,99224.09
2024-01-04T04:51:14.619Z,99216.47
2024-01-04T04:55:16.231Z,99207.94
2024-01-04T04:59:17.864Z,99247.09
2024-01-04T05:03:19.559Z,99223.19
2024-01-04T05:07:21.231Z,99247.97
2024-01-04T05:11:22.822Z,99240.28
2024-01-04T05:15:24.495Z,99250.56
2024-01-04T05:19:26.361Z,99259.94
2024-01-04T05:23:28.136Z,99254.88
2024-01-04T05:27:29.799Z,99255.75
2024-01-04T05:31:31.471Z,99277.84
2024-01-04T05:35:33.093Z,99278.72
2024-01-04T05:39:35.626Z,99291.56
2024-01-04T05:43:37.217Z,99290.66
2024-01-04T05:47:38.994Z,99299.22
2024-01-04T05:51:42.729Z,99297.50
2024-01-04T05:55:45.062Z,99299.13
2024-01-04T05:59:46.669Z,99307.59
2024-01-04T06:03:48.840Z,99316.91
2024-01-04T06:07:50.601Z,99316.88
2024-01-04T06:11:52.633Z,99322.75
2024-01-04T06:15:54.569Z,99326.13
2024-01-04T06:19:56.459Z,99345.75
2024-01-04T06:23:58.460Z,99341.53
2024-01-04T06:28:00.256Z,99364.38
2024-01-04T06:32:02.086Z,99368.59
2024-01-04T06:36:04.047Z,99369.38
2024-01-04T06:40:09.405Z,99369.44
2024-01-04T06:44:10.956Z,99375.41
2024-01-04T06:48:12.609Z,99380.47
2024-01-04T06:52:16.450Z,99385.47
2024-01-04T06:56:19.501Z,99386.25
2024-01-04T07:00:21.310Z,99392.16
2024-01-04T07:04:22.951Z,99397.28
2024-01-04T07:08:24.596Z,99415.19
2024-01-04T07:12:27.029Z,99415.78
2024-01-04T07:16:28.735Z,99421.00
2024-01-04T07:20:30.318Z,99417.59
2024-01-04T07:24:32.354Z,99419.34
2024-01-04T07:28:34.038Z,99427.91
2024-01-04T07:32:35.762Z,99444.16
2024-01-04T07:36:37.435Z,99434.59
2024-01-04T07:40:39.114Z,99444.88
2024-01-04T07:44:45.367Z,99447.31
2024-01-04T07:48:52.133Z,99442.19
2024-01-04T07:52:53.823Z,99459.81
2024-01-04T07:56:55.674Z,99457.22
2024-01-04T08:00:59.060Z,99459.09
2024-01-04T08:05:01.585Z,99469.59
2024-01-04T08:09:04.445Z,99479.06
2024-01-04T08:13:06.375Z,99486.84
2024-01-04T08:17:08.055Z,99498.72
2024-01-04T08:21:11.032Z,99495.34
2024-01-04T08:25:12.708Z,99503.94
2024-01-04T08:29:14.311Z,99514.41
2024-01-04T08:33:16.030Z,99508.63
2024-01-04T08:37:19.832Z,99512.88
2024-01-04T08:41:21.630Z,99540.09
2024-01-04T08:45:23.530Z,99538.34
2024-01-04T08:49:25.532Z,99540.84
2024-01-04T08:53:27.304Z,99560.50
2024-01-04T08:57:28.979Z,99560.59
2024-01-04T09:01:30.969Z,99563.28
2024-01-04T09:05:32.698Z,99573.44
2024-01-04T09:09:34.362Z,99566.94
2024-01-04T09:13:40.022Z,99560.41
2024-01-04T09:17:44.984Z,99566.59
2024-01-04T09:21:50.882Z,99564.09
2024-01-04T09:25:52.506Z,99592.25
2024-01-04T09:29:54.272Z,99582.97
2024-01-04T09:33:56.655Z,99571.78
2024-01-04T09:37:58.324Z,99578.31
2024-01-04T09:42:01.278Z,99585.00
2024-01-04T09:46:03.100Z,99584.94
2024-01-04T09:50:05.279Z,99584.81
2024-01-04T09:54:09.676Z,99598.44
2024-01-04T09:58:11.999Z,99602.56
2024-01-04T10:02:17.974Z,99600.84
2024-01-04T10:06:30.127Z,99614.47
2024-01-04T10:10:36.316Z,99617.88
2024-01-04T10:14:38.817Z,99609.59
2024-01-04T10:18:42.298Z,99626.56
2024-01-04T10:22:44.266Z,99633.38
2024-01-04T10:26:53.797Z,99633.63
2024-01-04T10:30:58.452Z,99652.63
2024-01-04T10:35:10.119Z,99654.59
2024-01-04T10:39:12.117Z,99658.06
2024-01-04T10:43:20.555Z,99662.59
2024-01-04T10:47:22.882Z,99669.56
2024-01-04T10:51:26.667Z,99663.53
2024-01-04T10:55:29.524Z,99674.75
2024-01-04T10:59:33.429Z,99666.47
2024-01-04T11:03:35.220Z,99669.22
2024-01-04T11:07:40.930Z,99654.59
2024-01-04T11:11:43.810Z,99660.41
2024-01-04T11:15:45.900Z,99660.94
2024-01-04T11:20:12.185Z,99646.66
2024-01-04T11:24:31.395Z,99645.16
2024-01-04T11:28:39.866Z,99671.00
2024-01-04T11:32:45.654Z,99650.81
2024-01-04T11:36:50.273Z,99663.84
2024-01-04T11:40:52.740Z,99657.81
2024-01-04T11:44:59.252Z,99655.47
2024-01-04T11:49:05.815Z,99650.00
2024-01-04T11:53:09.521Z,99652.56
2024-01-04T11:57:20.974Z,99641.19
2024-01-04T12:01:25.508Z,99653.81
2024-01-04T12:05:30.494Z,99648.69
2024-01-04T12:09:32.102Z,99648.31
2024-01-04T12:13:33.815Z,99641.06
2024-01-04T12:17:35.444Z,99653.44
2024-01-04T12:21:37.213Z,99655.97
2024-01-04T12:25:39.820Z,99655.84
2024-01-04T12:29:43.494Z,99650.66
2024-01-04T12:33:48.348Z,99646.69
2024-01-04T12:38:04.439Z,99656.38
2024-01-04T12:42:06.158Z,99644.06
2024-01-04T12:46:09.712Z,99651.63
2024-01-04T12:50:11.584Z,99639.69
2024-01-04T12:54:13.356Z,99649.84
2024-01-04T12:58:15.401Z,99656.75
2024-01-04T13:02:17.037Z,99659.25
2024-01-04T13:06:18.855Z,99669.56
2024-01-04T13:10:20.503Z,99661.38
2024-01-04T13:14:22.112Z,99670.09
2024-01-04T13:18:23.897Z,99666.78
2024-01-04T13:22:27.296Z,99667.69
2024-01-04T13:26:30.063Z,99676.75
2024-01-04T13:30:32.163Z,99645.66
2024-01-04T13:34:33.928Z,99667.59
2024-01-04T13:38:35.619Z,99680.09
2024-01-04T13:42:37.226Z,99676.44
2024-01-04T13:46:38.852Z,99686.81
2024-01-04T13:50:40.484Z,99695.41
2024-01-04T13:54:43.462Z,99690.09
2024-01-04T13:58:45.266Z,99694.66
2024-01-04T14:02:46.930Z,99700.06
2024-01-04T14:06:48.647Z,99711.66
2024-01-04T14:10:50.254Z,99721.88
2024-01-04T14:14:51.953Z,99725.78
2024-01-04T14:18:53.582Z,99732.50
2024-01-04T14:22:58.677Z,99733.56
2024-01-04T14:27:00.402Z,99738.47
2024-01-04T14:31:03.366Z,99732.56
2024-01-04T14:35:06.837Z,99728.56
2024-01-04T14:39:08.781Z,99732.44
2024-01-04T14:43:12.656Z,99722.56
2024-01-04T14:47:14.230Z,99726.84
2024-01-04T14:51:23.409Z,99726.59
2024-01-04T14:55:28.051Z,99732.31
2024-01-04T14:59:29.772Z,99740.56
2024-01-04T15:03:31.545Z,99735.53
2024-01-04T15:07:33.785Z,99737.28
2024-01-04T15:11:35.498Z,99743.22
2024-01-04T15:15:38.617Z,99751.59
2024-01-04T15:19:40.496Z,99753.78
2024-01-04T15:23:42.223Z,99752.03
2024-01-04T15:27:43.850Z,99754.63
2024-01-04T15:31:46.018Z,99751.22
2024-01-04T15:35:47.798Z,99749.31
2024-01-04T15:39:49.472Z,99734.47
2024-01-04T15:43:51.121Z,99734.06
2024-01-04T15:47:54.297Z,99738.78
2024-01-04T15:51:56.159Z,99733.31
2024-01-04T15:55:57.762Z,99737.97
2024-01-04T15:59:59.682Z,99722.06
2024-01-04T16:04:01.398Z,99728.38
2024-01-04T16:08:03.295Z,99732.41
2024-01-04T16:12:05.384Z,99731.13
2024-01-04T16:16:07.218Z,99736.84
2024-01-04T16:20:15.732Z,99733.19
2024-01-04T16:24:24.345Z,99742.41
2024-01-04T16:28:26.083Z,99728.00
2024-01-04T16:32:27.777Z,99740.06
2024-01-04T16:36:29.509Z,99740.59
2024-01-04T16:40:31.180Z,99727.53
2024-01-04T16:44:33.291Z,99720.25
2024-01-04T16:48:35.532Z,99714.31
2024-01-04T16:52:37.505Z,99713.31
2024-01-04T16:56:39.200Z,99716.41
2024-01-04T17:00:40.842Z,99708.53
2024-01-04T17:04:42.798Z,99703.34
2024-01-04T17:08:44.755Z,99703.16
2024-01-04T17:12:46.600Z,99702.75
2024-01-04T17:16:48.249Z,99702.31
2024-01-04T17:20:49.984Z,99703.78
2024-01-04T17:24:51.802Z,99702.06
2024-01-04T17:28:54.150Z,99701.88
2024-01-04T17:32:55.990Z,99709.34
2024-01-04T17:36:57.819Z,99714.31
2024-01-04T17:41:00.418Z,99713.38
2024-01-04T17:45:02.217Z,99717.56
2024-01-04T17:49:04.220Z,99719.31
2024-01-04T17:53:06.618Z,99726.97
2024-01-04T17:57:08.336Z,99724.44
2024-01-04T18:01:13.776Z,99711.66
2024-01-04T18:05:16.022Z,99729.56
2024-01-04T18:09:17.711Z,99718.63
2024-01-04T18:13:19.316Z,99720.50
2024-01-04T18:17:22.540Z,99723.84
2024-01-04T18:21:24.595Z,99713.53
2024-01-04T18:25:26.443Z,99721.97
2024-01-04T18:29:28.076Z,99724.50
2024-01-04T18:33:29.870Z,99716.03
2024-01-04T18:37:31.567Z,99713.56
2024-01-04T18:41:33.594Z,99718.81
2024-01-04T18:45:35.438Z,99720.16
2024-01-04T18:49:37.544Z,99719.72
2024-01-04T18:53:39.233Z,99713.00
2024-01-04T18:57:40.879Z,99707.75
2024-01-04T19:01:42.662Z,99705.13
2024-01-04T19:05:44.508Z,99713.56
2024-01-04T19:09:46.166Z,99714.66
2024-01-04T19:13:48.839Z,99709.72
2024-01-04T19:17:50.780Z,99710.69
2024-01-04T19:21:52.519Z,99713.44
2024-01-04T19:25:54.185Z,99709.25
2024-01-04T19:29:56.208Z,99700.72
2024-01-04T19:33:58.924Z,99692.94
2024-01-04T19:38:01.329Z,99680.72
2024-01-04T19:42:03.126Z,99673.63
2024-01-04T19:46:10.042Z,99678.41
2024-01-04T19:50:12.800Z,99666.22
2024-01-04T19:54:16.710Z,99669.41
2024-01-04T19:58:18.838Z,99671.75
2024-01-04T20:02:20.537Z,99674.97
2024-01-04T20:06:22.353Z,99670.56
2024-01-04T20:10:24.072Z,99667.88
2024-01-04T20:14:27.612Z,99672.72
2024-01-04T20:18:29.444Z,99668.31
2024-01-04T20:22:31.190Z,99671.53
2024-01-04T20:26:33.558Z,99668.81
2024-01-04T20:30:35.686Z,99676.25
2024-01-04T20:34:37.503Z,99673.66
2024-01-04T20:38:39.230Z,99664.31
2024-01-04T20:42:41.468Z,99676.28
2024-01-04T20:46:43.836Z,99668.72
2024-01-04T20:50:46.699Z,99662.59
2024-01-04T20:54:48.398Z,99652.19
2024-01-04T20:58:50.043Z,99646.91
2024-01-04T21:02:51.773Z,99652.69
2024-01-04T21:06:53.753Z,99637.41
2024-01-04T21:10:55.518Z,99651.06
2024-01-04T21:14:57.593Z,99650.34
2024-01-04T21:18:59.531Z,99640.97
2024-01-04T21:23:02.050Z,99638.72
2024-01-04T21:27:09.002Z,99636.13
2024-01-04T21:31:10.774Z,99648.91
2024-01-04T21:35:12.619Z,99636.13
2024-01-04T21:39:15.079Z,99630.19
2024-01-04T21:43:16.811Z,99632.72
2024-01-04T21:47:18.686Z,99623.22
2024-01-04T21:51:21.761Z,99635.88
2024-01-04T21:55:23.592Z,99617.97
2024-01-04T21:59:26.149Z,99630.69
2024-01-04T22:03:28.170Z,99619.66
2024-01-04T22:07:29.923Z,99608.59
2024-01-04T22:11:31.620Z,99606.03
2024-01-04T22:15:33.932Z,99607.72
2024-01-04T22:19:36.868Z,99605.28
2024-01-04T22:23:38.662Z,99597.78
2024-01-04T22:27:40.290Z,99604.50
2024-01-04T22:31:42.218Z,99596.00
2024-01-04T22:35:43.929Z,99600.09
2024-01-04T22:39:45.683Z,99592.44
2024-01-04T22:43:47.237Z,99592.44
2024-01-04T22:47:49.421Z,99589.88
2024-01-04T22:51:51.100Z,99581.41
2024-01-04T22:55:52.881Z,99584.78
2024-01-04T22:59:57.357Z,99582.22
2024-01-04T23:04:00.072Z,99565.13
2024-01-04T23:08:01.975Z,99552.22
2024-01-04T23:12:03.798Z,99554.78
2024-01-04T23:16:05.956Z,99548.00
2024-01-04T23:20:08.301Z,99539.66
2024-01-04T23:24:10.269Z,99536.16
2024-01-04T23:28:11.993Z,99526.72
2024-01-04T23:32:13.962Z,99518.06
2024-01-04T23:36:16.249Z,99512.88
2024-01-04T23:40:17.972Z,99502.47
2024-01-04T23:44:19.635Z,99497.25
2024-01-04T23:48:21.507Z,99479.28
2024-01-04T23:52:23.339Z,99484.28
2024-01-04T23:56:24.909Z,99483.31
